sensor_id;sensor_type;location;lat;lon;timestamp;pressure;altitude;pressure_sealevel;temperature;humidity
73103;BME280;61294;65.988;29.172;2023-04-22T00:02:05;97571.91;;;2.98;78.52
73103;BME280;61294;65.988;29.172;2023-04-22T00:04:42;97537.09;;;2.80;79.05
73103;BME280;61294;65.988;29.172;2023-04-22T00:07:18;97533.50;;;2.64;79.04
73103;BME280;61294;65.988;29.172;2023-04-22T00:09:44;97553.63;;;2.87;79.25
73103;BME280;61294;65.988;29.172;2023-04-22T00:12:10;97530.13;;;2.73;79.41
73103;BME280;61294;65.988;29.172;2023-04-22T00:14:36;97529.25;;;2.71;79.12
73103;BME280;61294;65.988;29.172;2023-04-22T00:17:03;97543.22;;;2.84;79.58
73103;BME280;61294;65.988;29.172;2023-04-22T00:19:32;97517.06;;;2.67;78.87
73103;BME280;61294;65.988;29.172;2023-04-22T00:22:01;97532.75;;;2.81;79.58
73103;BME280;61294;65.988;29.172;2023-04-22T00:24:32;97534.56;;;2.88;78.79
73103;BME280;61294;65.988;29.172;2023-04-22T00:27:01;97542.41;;;2.91;79.40
73103;BME280;61294;65.988;29.172;2023-04-22T00:29:27;97514.59;;;2.84;78.51
73103;BME280;61294;65.988;29.172;2023-04-22T00:31:53;97522.47;;;2.94;78.32
73103;BME280;61294;65.988;29.172;2023-04-22T00:34:19;97518.06;;;2.81;78.71
73103;BME280;61294;65.988;29.172;2023-04-22T00:36:45;97528.44;;;2.78;79.37
73103;BME280;61294;65.988;29.172;2023-04-22T00:39:11;97540.53;;;2.78;79.35
73103;BME280;61294;65.988;29.172;2023-04-22T00:41:39;97545.75;;;2.78;79.31
73103;BME280;61294;65.988;29.172;2023-04-22T00:44:10;97515.28;;;2.61;79.68
73103;BME280;61294;65.988;29.172;2023-04-22T00:46:37;97534.38;;;2.68;79.85
73103;BME280;61294;65.988;29.172;2023-04-22T00:49:04;97531.78;;;2.65;80.42
73103;BME280;61294;65.988;29.172;2023-04-22T00:51:31;97504.78;;;2.52;80.23
73103;BME280;61294;65.988;29.172;2023-04-22T00:53:57;97501.25;;;2.45;80.64
73103;BME280;61294;65.988;29.172;2023-04-22T00:56:27;97500.53;;;2.58;79.98
73103;BME280;61294;65.988;29.172;2023-04-22T00:58:53;97495.19;;;2.45;80.70
73103;BME280;61294;65.988;29.172;2023-04-22T01:01:20;97504.78;;;2.52;80.95
73103;BME280;61294;65.988;29.172;2023-04-22T01:03:47;97493.50;;;2.47;81.14
73103;BME280;61294;65.988;29.172;2023-04-22T01:06:15;97511.81;;;2.62;80.50
73103;BME280;61294;65.988;29.172;2023-04-22T01:08:41;97487.44;;;2.51;80.70
73103;BME280;61294;65.988;29.172;2023-04-22T01:11:07;97487.38;;;2.43;81.13
73103;BME280;61294;65.988;29.172;2023-04-22T01:13:33;97480.44;;;2.40;80.79
73103;BME280;61294;65.988;29.172;2023-04-22T01:16:00;97502.19;;;2.52;80.76
73103;BME280;61294;65.988;29.172;2023-04-22T01:18:27;97479.59;;;2.41;80.85
73103;BME280;61294;65.988;29.172;2023-04-22T01:20:55;97490.03;;;2.51;81.02
73103;BME280;61294;65.988;29.172;2023-04-22T01:23:22;97488.16;;;2.33;82.22
73103;BME280;61294;65.988;29.172;2023-04-22T01:25:48;97469.91;;;2.27;82.08
73103;BME280;61294;65.988;29.172;2023-04-22T01:28:15;97468.91;;;2.14;81.97
73103;BME280;61294;65.988;29.172;2023-04-22T01:30:42;97489.75;;;2.17;82.37
73103;BME280;61294;65.988;29.172;2023-04-22T01:33:09;97511.53;;;2.28;82.46
73103;BME280;61294;65.988;29.172;2023-04-22T01:35:36;97491.53;;;2.22;82.45
73103;BME280;61294;65.988;29.172;2023-04-22T01:38:03;97509.75;;;2.22;83.07
73103;BME280;61294;65.988;29.172;2023-04-22T01:40:32;97493.28;;;2.25;82.55
73103;BME280;61294;65.988;29.172;2023-04-22T01:42:59;97476.66;;;2.06;82.88
73103;BME280;61294;65.988;29.172;2023-04-22T01:45:27;97480.03;;;1.97;84.06
73103;BME280;61294;65.988;29.172;2023-04-22T01:47:56;97493.09;;;2.08;84.03
73103;BME280;61294;65.988;29.172;2023-04-22T01:50:22;97470.59;;;2.05;83.79
73103;BME280;61294;65.988;29.172;2023-04-22T01:52:51;97466.19;;;1.97;83.82
73103;BME280;61294;65.988;29.172;2023-04-22T01:55:55;97460.09;;;1.96;84.00
73103;BME280;61294;65.988;29.172;2023-04-22T02:04:51;97461.88;;;2.02;84.10
73103;BME280;61294;65.988;29.172;2023-04-22T02:07:26;97480.09;;;2.05;84.24
73103;BME280;61294;65.988;29.172;2023-04-22T02:09:52;97471.41;;;2.01;84.10
73103;BME280;61294;65.988;29.172;2023-04-22T02:12:18;97481.00;;;2.07;84.65
73103;BME280;61294;65.988;29.172;2023-04-22T02:14:47;97475.66;;;1.95;85.00
73103;BME280;61294;65.988;29.172;2023-04-22T02:17:13;97490.47;;;2.05;85.29
73103;BME280;61294;65.988;29.172;2023-04-22T02:19:42;97472.22;;;1.96;84.37
73103;BME280;61294;65.988;29.172;2023-04-22T02:22:08;97473.09;;;1.96;85.04
73103;BME280;61294;65.988;29.172;2023-04-22T02:24:34;97472.25;;;1.99;85.37
73103;BME280;61294;65.988;29.172;2023-04-22T02:27:00;97476.59;;;2.01;85.52
73103;BME280;61294;65.988;29.172;2023-04-22T02:29:25;97447.03;;;1.85;85.57
73103;BME280;61294;65.988;29.172;2023-04-22T02:31:51;97458.31;;;1.92;85.75
73103;BME280;61294;65.988;29.172;2023-04-22T02:34:17;97486.97;;;1.98;86.04
73103;BME280;61294;65.988;29.172;2023-04-22T02:36:43;97477.44;;;1.97;85.66
73103;BME280;61294;65.988;29.172;2023-04-22T02:39:08;97472.22;;;1.94;86.88
73103;BME280;61294;65.988;29.172;2023-04-22T02:41:34;97473.06;;;1.93;86.57
73103;BME280;61294;65.988;29.172;2023-04-22T02:44:00;97468.69;;;1.89;87.52
73103;BME280;61294;65.988;29.172;2023-04-22T02:46:26;97462.53;;;1.82;87.21
73103;BME280;61294;65.988;29.172;2023-04-22T02:48:52;97467.03;;;1.97;86.92
73103;BME280;61294;65.988;29.172;2023-04-22T02:51:17;97436.59;;;1.84;86.82
73103;BME280;61294;65.988;29.172;2023-04-22T02:53:43;97474.00;;;2.00;87.17
73103;BME280;61294;65.988;29.172;2023-04-22T02:56:09;97471.41;;;2.01;87.34
73103;BME280;61294;65.988;29.172;2023-04-22T02:58:35;97471.38;;;1.98;87.38
73103;BME280;61294;65.988;29.172;2023-04-22T03:01:00;97463.53;;;1.95;87.20
73103;BME280;61294;65.988;29.172;2023-04-22T03:03:26;97442.56;;;1.77;88.45
73103;BME280;61294;65.988;29.172;2023-04-22T03:05:52;97477.47;;;2.02;88.16
73103;BME280;61294;65.988;29.172;2023-04-22T03:08:18;97473.09;;;1.99;87.89
73103;BME280;61294;65.988;29.172;2023-04-22T03:10:44;97467.06;;;2.00;88.61
73103;BME280;61294;65.988;29.172;2023-04-22T03:13:11;97468.81;;;2.01;88.16
73103;BME280;61294;65.988;29.172;2023-04-22T03:15:39;97471.50;;;2.11;88.29
73103;BME280;61294;65.988;29.172;2023-04-22T03:18:06;97469.69;;;2.05;88.40
73103;BME280;61294;65.988;29.172;2023-04-22T03:20:32;97464.47;;;2.02;88.69
73103;BME280;61294;65.988;29.172;2023-04-22T03:22:57;97467.97;;;2.04;88.46
73103;BME280;61294;65.988;29.172;2023-04-22T03:25:23;97473.13;;;2.01;88.92
73103;BME280;61294;65.988;29.172;2023-04-22T03:27:49;97460.06;;;1.92;89.34
73103;BME280;61294;65.988;29.172;2023-04-22T03:30:15;97439.25;;;1.88;89.45
73103;BME280;61294;65.988;29.172;2023-04-22T03:32:40;97457.53;;;2.01;89.10
73103;BME280;61294;65.988;29.172;2023-04-22T03:35:06;97463.78;;;2.18;88.86
73103;BME280;61294;65.988;29.172;2023-04-22T03:37:32;97468.91;;;2.11;88.79
73103;BME280;61294;65.988;29.172;2023-04-22T03:39:58;97450.69;;;2.09;88.64
73103;BME280;61294;65.988;29.172;2023-04-22T03:42:23;97450.66;;;2.03;88.81
73103;BME280;61294;65.988;29.172;2023-04-22T03:44:49;97474.06;;;2.09;88.51
73103;BME280;61294;65.988;29.172;2023-04-22T03:47:15;97467.06;;;1.99;89.51
73103;BME280;61294;65.988;29.172;2023-04-22T03:49:41;97450.50;;;1.89;89.33
73103;BME280;61294;65.988;29.172;2023-04-22T03:52:07;97470.53;;;2.01;89.23
73103;BME280;61294;65.988;29.172;2023-04-22T03:54:33;97461.72;;;1.86;89.74
73103;BME280;61294;65.988;29.172;2023-04-22T03:56:58;97460.03;;;1.88;89.84
73103;BME280;61294;65.988;29.172;2023-04-22T03:59:25;97477.50;;;2.06;89.02
73103;BME280;61294;65.988;29.172;2023-04-22T04:01:51;97471.31;;;1.92;89.20
73103;BME280;61294;65.988;29.172;2023-04-22T04:04:19;97470.44;;;1.90;89.87
73103;BME280;61294;65.988;29.172;2023-04-22T04:06:47;97476.53;;;1.95;89.63
73103;BME280;61294;65.988;29.172;2023-04-22T04:09:12;97484.44;;;2.06;89.36
73103;BME280;61294;65.988;29.172;2023-04-22T04:11:38;97484.41;;;2.01;89.06
73103;BME280;61294;65.988;29.172;2023-04-22T04:14:04;97468.66;;;1.86;89.37
73103;BME280;61294;65.988;29.172;2023-04-22T04:16:30;97487.75;;;1.91;89.56
73103;BME280;61294;65.988;29.172;2023-04-22T04:18:56;97482.47;;;1.83;90.11
73103;BME280;61294;65.988;29.172;2023-04-22T04:21:21;97484.06;;;1.72;90.68
73103;BME280;61294;65.988;29.172;2023-04-22T04:23:47;97483.25;;;1.76;90.88
73103;BME280;61294;65.988;29.172;2023-04-22T04:26:13;97487.38;;;1.57;90.99
73103;BME280;61294;65.988;29.172;2023-04-22T04:28:40;97492.63;;;1.63;91.27
73103;BME280;61294;65.988;29.172;2023-04-22T04:31:06;97496.84;;;1.55;90.77
73103;BME280;61294;65.988;29.172;2023-04-22T04:33:32;97475.00;;;1.37;90.50
73103;BME280;61294;65.988;29.172;2023-04-22T04:35:58;97502.88;;;1.52;90.07
73103;BME280;61294;65.988;29.172;2023-04-22T04:38:24;97497.56;;;1.42;89.98
73103;BME280;61294;65.988;29.172;2023-04-22T04:40:51;97495.06;;;1.51;90.08
73103;BME280;61294;65.988;29.172;2023-04-22T04:43:18;97507.91;;;1.40;89.86
73103;BME280;61294;65.988;29.172;2023-04-22T04:45:44;97504.47;;;1.41;89.90
73103;BME280;61294;65.988;29.172;2023-04-22T04:48:14;97517.25;;;1.26;89.89
73103;BME280;61294;65.988;29.172;2023-04-22T04:50:44;97516.09;;;1.08;89.54
73103;BME280;61294;65.988;29.172;2023-04-22T04:53:10;97517.81;;;1.06;89.60
73103;BME280;61294;65.988;29.172;2023-04-22T04:55:37;97505.63;;;0.99;89.25
73103;BME280;61294;65.988;29.172;2023-04-22T04:58:03;97510.13;;;1.14;89.38
73103;BME280;61294;65.988;29.172;2023-04-22T05:00:29;97500.53;;;1.08;88.73
73103;BME280;61294;65.988;29.172;2023-04-22T05:02:55;97477.03;;;0.96;88.78
73103;BME280;61294;65.988;29.172;2023-04-22T05:05:20;97509.19;;;1.06;89.34
73103;BME280;61294;65.988;29.172;2023-04-22T05:07:46;97511.91;;;1.16;89.00
73103;BME280;61294;65.988;29.172;2023-04-22T05:10:12;97502.41;;;1.17;88.55
73103;BME280;61294;65.988;29.172;2023-04-22T05:12:38;97508.50;;;1.19;88.79
73103;BME280;61294;65.988;29.172;2023-04-22T05:15:05;97509.53;;;1.32;88.91
73103;BME280;61294;65.988;29.172;2023-04-22T05:17:31;97504.34;;;1.33;88.65
73103;BME280;61294;65.988;29.172;2023-04-22T05:19:57;97507.81;;;1.34;88.31
73103;BME280;61294;65.988;29.172;2023-04-22T05:22:23;97509.78;;;1.52;88.43
73103;BME280;61294;65.988;29.172;2023-04-22T05:24:48;97514.97;;;1.50;87.98
73103;BME280;61294;65.988;29.172;2023-04-22T05:27:14;97502.19;;;1.01;88.77
73103;BME280;61294;65.988;29.172;2023-04-22T05:29:40;97476.69;;;0.73;89.68
73103;BME280;61294;65.988;29.172;2023-04-22T05:32:06;97517.03;;;1.12;90.07
73103;BME280;61294;65.988;29.172;2023-04-22T05:34:33;97523.47;;;1.40;89.19
73103;BME280;61294;65.988;29.172;2023-04-22T05:37:01;97527.63;;;1.26;87.70
73103;BME280;61294;65.988;29.172;2023-04-22T05:39:27;97524.22;;;1.30;86.75
73103;BME280;61294;65.988;29.172;2023-04-22T05:41:53;97531.34;;;1.46;86.55
73103;BME280;61294;65.988;29.172;2023-04-22T05:44:19;97539.78;;;1.30;85.71
73103;BME280;61294;65.988;29.172;2023-04-22T05:46:45;97510.78;;;0.99;86.33
73103;BME280;61294;65.988;29.172;2023-04-22T05:49:11;97530.72;;;1.01;86.38
73103;BME280;61294;65.988;29.172;2023-04-22T05:51:37;97537.69;;;1.06;85.91
73103;BME280;61294;65.988;29.172;2023-04-22T05:54:03;97549.53;;;0.90;85.46
73103;BME280;61294;65.988;29.172;2023-04-22T05:56:29;97536.19;;;0.65;85.84
73103;BME280;61294;65.988;29.172;2023-04-22T05:58:55;97542.56;;;0.85;85.51
73103;BME280;61294;65.988;29.172;2023-04-22T06:01:20;97525.94;;;0.73;84.98
73103;BME280;61294;65.988;29.172;2023-04-22T06:03:46;97547.31;;;0.58;84.75
73103;BME280;61294;65.988;29.172;2023-04-22T06:06:12;97514.13;;;0.37;85.25
73103;BME280;61294;65.988;29.172;2023-04-22T06:08:37;97530.75;;;0.51;84.48
73103;BME280;61294;65.988;29.172;2023-04-22T06:11:03;97551.25;;;0.88;84.53
73103;BME280;61294;65.988;29.172;2023-04-22T06:13:29;97552.22;;;0.93;84.14
73103;BME280;61294;65.988;29.172;2023-04-22T06:15:55;97554.63;;;0.82;83.89
73103;BME280;61294;65.988;29.172;2023-04-22T06:18:20;97548.38;;;0.71;83.81
73103;BME280;61294;65.988;29.172;2023-04-22T06:20:46;97550.56;;;0.99;83.10
73103;BME280;61294;65.988;29.172;2023-04-22T06:23:12;97557.44;;;0.96;81.20
73103;BME280;61294;65.988;29.172;2023-04-22T06:25:38;97553.25;;;1.06;81.64
73103;BME280;61294;65.988;29.172;2023-04-22T06:28:03;97525.63;;;1.09;81.00
73103;BME280;61294;65.988;29.172;2023-04-22T06:30:29;97570.00;;;1.28;80.73
73103;BME280;61294;65.988;29.172;2023-04-22T06:32:55;97559.66;;;1.29;78.63
73103;BME280;61294;65.988;29.172;2023-04-22T06:35:21;97557.94;;;1.30;78.55
73103;BME280;61294;65.988;29.172;2023-04-22T06:37:47;97563.22;;;1.36;77.71
73103;BME280;61294;65.988;29.172;2023-04-22T06:40:14;97538.50;;;1.01;76.23
73103;BME280;61294;65.988;29.172;2023-04-22T06:42:40;97564.75;;;1.22;77.30
73103;BME280;61294;65.988;29.172;2023-04-22T06:45:06;97569.22;;;1.33;77.65
73103;BME280;61294;65.988;29.172;2023-04-22T06:47:33;97571.41;;;1.06;77.88
73103;BME280;61294;65.988;29.172;2023-04-22T06:50:00;97559.63;;;0.73;79.18
73103;BME280;61294;65.988;29.172;2023-04-22T06:52:26;97579.00;;;0.93;80.36
73103;BME280;61294;65.988;29.172;2023-04-22T06:54:52;97572.22;;;1.01;79.76
73103;BME280;61294;65.988;29.172;2023-04-22T06:57:18;97534.41;;;0.62;79.78
73103;BME280;61294;65.988;29.172;2023-04-22T06:59:43;97572.81;;;0.85;79.31
73103;BME280;61294;65.988;29.172;2023-04-22T07:02:09;97565.88;;;0.85;78.49
73103;BME280;61294;65.988;29.172;2023-04-22T07:04:35;97574.59;;;0.88;77.30
73103;BME280;61294;65.988;29.172;2023-04-22T07:07:00;97571.16;;;0.89;76.49
73103;BME280;61294;65.988;29.172;2023-04-22T07:09:26;97583.25;;;0.90;76.97
73103;BME280;61294;65.988;29.172;2023-04-22T07:11:53;97583.91;;;0.76;77.24
73103;BME280;61294;65.988;29.172;2023-04-22T07:14:19;97553.03;;;0.92;78.31
73103;BME280;61294;65.988;29.172;2023-04-22T07:16:45;97570.50;;;1.03;77.48
73103;BME280;61294;65.988;29.172;2023-04-22T07:19:11;97575.06;;;1.18;77.57
73103;BME280;61294;65.988;29.172;2023-04-22T07:21:37;97577.41;;;1.61;77.43
73103;BME280;61294;65.988;29.172;2023-04-22T07:24:03;97583.13;;;1.37;77.25
73103;BME280;61294;65.988;29.172;2023-04-22T07:26:28;97583.13;;;1.37;76.69
73103;BME280;61294;65.988;29.172;2023-04-22T07:28:56;97587.75;;;1.00;76.59
73103;BME280;61294;65.988;29.172;2023-04-22T07:31:22;97588.06;;;0.68;77.47
73103;BME280;61294;65.988;29.172;2023-04-22T07:33:48;97555.78;;;0.49;78.45
73103;BME280;61294;65.988;29.172;2023-04-22T07:36:13;97604.25;;;0.53;79.24
73103;BME280;61294;65.988;29.172;2023-04-22T07:38:39;97605.75;;;0.91;79.75
73103;BME280;61294;65.988;29.172;2023-04-22T07:41:05;97608.56;;;1.05;77.87
73103;BME280;61294;65.988;29.172;2023-04-22T07:43:31;97615.06;;;0.79;76.36
73103;BME280;61294;65.988;29.172;2023-04-22T07:45:56;97618.00;;;0.50;76.94
73103;BME280;61294;65.988;29.172;2023-04-22T07:48:22;97619.69;;;0.48;77.81
73103;BME280;61294;65.988;29.172;2023-04-22T07:50:48;97629.38;;;0.57;77.31
73103;BME280;61294;65.988;29.172;2023-04-22T07:53:13;97629.03;;;0.39;76.80
73103;BME280;61294;65.988;29.172;2023-04-22T07:55:41;97626.31;;;0.34;76.46
73103;BME280;61294;65.988;29.172;2023-04-22T07:58:07;97635.00;;;0.36;76.82
73103;BME280;61294;65.988;29.172;2023-04-22T08:00:33;97608.00;;;0.23;76.60
73103;BME280;61294;65.988;29.172;2023-04-22T08:02:59;97610.34;;;0.11;75.83
73103;BME280;61294;65.988;29.172;2023-04-22T08:05:25;97643.34;;;0.21;76.77
73103;BME280;61294;65.988;29.172;2023-04-22T08:07:51;97649.28;;;0.17;75.44
73103;BME280;61294;65.988;29.172;2023-04-22T08:10:17;97633.91;;;0.23;75.55
73103;BME280;61294;65.988;29.172;2023-04-22T08:12:43;97650.09;;;0.13;75.04
73103;BME280;61294;65.988;29.172;2023-04-22T08:15:09;97660.47;;;0.57;76.04
73103;BME280;61294;65.988;29.172;2023-04-22T08:17:35;97633.88;;;0.22;75.32
73103;BME280;61294;65.988;29.172;2023-04-22T08:20:01;97675.84;;;0.07;75.10
73103;BME280;61294;65.988;29.172;2023-04-22T08:22:26;97680.47;;;0.20;76.18
73103;BME280;61294;65.988;29.172;2023-04-22T08:24:52;97688.47;;;0.32;75.96
73103;BME280;61294;65.988;29.172;2023-04-22T08:27:20;97664.34;;;-0.08;75.43
73103;BME280;61294;65.988;29.172;2023-04-22T08:29:46;97655.84;;;-0.40;76.44
73103;BME280;61294;65.988;29.172;2023-04-22T08:32:12;97684.56;;;-0.29;76.31
73103;BME280;61294;65.988;29.172;2023-04-22T08:34:37;97685.38;;;0.08;78.04
73103;BME280;61294;65.988;29.172;2023-04-22T08:37:03;97688.97;;;0.14;77.00
73103;BME280;61294;65.988;29.172;2023-04-22T08:39:29;97698.47;;;0.15;76.52
73103;BME280;61294;65.988;29.172;2023-04-22T08:41:55;97698.91;;;-0.06;77.86
73103;BME280;61294;65.988;29.172;2023-04-22T08:44:22;97694.00;;;-0.31;76.88
73103;BME280;61294;65.988;29.172;2023-04-22T08:46:49;97698.19;;;0.02;77.96
73103;BME280;61294;65.988;29.172;2023-04-22T08:49:15;97662.97;;;0.10;75.18
73103;BME280;61294;65.988;29.172;2023-04-22T08:51:42;97686.91;;;-0.01;76.16
73103;BME280;61294;65.988;29.172;2023-04-22T08:54:09;97702.91;;;0.64;75.36
73103;BME280;61294;65.988;29.172;2023-04-22T08:56:38;97703.53;;;0.98;74.13
73103;BME280;61294;65.988;29.172;2023-04-22T08:59:05;97710.41;;;1.46;72.79
73103;BME280;61294;65.988;29.172;2023-04-22T09:01:32;97687.91;;;2.05;69.91
73103;BME280;61294;65.988;29.172;2023-04-22T09:03:59;97702.28;;;2.42;67.64
73103;BME280;61294;65.988;29.172;2023-04-22T09:06:25;97699.53;;;2.33;64.13
73103;BME280;61294;65.988;29.172;2023-04-22T09:08:52;97706.97;;;2.74;64.45
73103;BME280;61294;65.988;29.172;2023-04-22T09:11:19;97709.91;;;2.30;61.82
73103;BME280;61294;65.988;29.172;2023-04-22T09:13:46;97699.84;;;1.90;61.74
73103;BME280;61294;65.988;29.172;2023-04-22T09:16:11;97710.38;;;2.01;60.77
73103;BME280;61294;65.988;29.172;2023-04-22T09:18:41;97688.31;;;1.71;61.14
73103;BME280;61294;65.988;29.172;2023-04-22T09:21:07;97701.25;;;1.68;61.98
73103;BME280;61294;65.988;29.172;2023-04-22T09:23:46;97721.53;;;1.37;62.47
73103;BME280;61294;65.988;29.172;2023-04-22T09:26:13;97716.16;;;1.28;61.62
73103;BME280;61294;65.988;29.172;2023-04-22T09:28:51;97725.34;;;1.09;61.81
73103;BME280;61294;65.988;29.172;2023-04-22T09:31:17;97719.59;;;1.26;62.78
73103;BME280;61294;65.988;29.172;2023-04-22T09:33:48;97731.72;;;1.28;62.82
73103;BME280;61294;65.988;29.172;2023-04-22T09:36:15;97717.06;;;1.29;63.13
73103;BME280;61294;65.988;29.172;2023-04-22T09:38:55;97733.81;;;1.49;62.25
73103;BME280;61294;65.988;29.172;2023-04-22T09:41:33;97741.97;;;1.19;62.34
73103;BME280;61294;65.988;29.172;2023-04-22T09:44:00;97719.16;;;1.01;63.61
73103;BME280;61294;65.988;29.172;2023-04-22T09:46:27;97735.19;;;0.80;64.01
73103;BME280;61294;65.988;29.172;2023-04-22T09:48:54;97754.31;;;0.86;64.21
73103;BME280;61294;65.988;29.172;2023-04-22T09:51:21;97747.03;;;1.11;63.25
73103;BME280;61294;65.988;29.172;2023-04-22T09:54:02;97759.75;;;0.99;63.30
73103;BME280;61294;65.988;29.172;2023-04-22T09:56:40;97760.47;;;0.92;63.97
73103;BME280;61294;65.988;29.172;2023-04-22T09:59:07;97759.78;;;1.00;64.44
73103;BME280;61294;65.988;29.172;2023-04-22T10:01:38;97736.75;;;0.72;62.96
73103;BME280;61294;65.988;29.172;2023-04-22T10:04:06;97768.41;;;1.01;65.02
73103;BME280;61294;65.988;29.172;2023-04-22T10:06:34;97757.44;;;1.13;64.55
73103;BME280;61294;65.988;29.172;2023-04-22T10:09:01;97770.16;;;0.56;64.72
73103;BME280;61294;65.988;29.172;2023-04-22T10:11:27;97760.22;;;0.79;65.47
73103;BME280;61294;65.988;29.172;2023-04-22T10:13:53;97773.03;;;0.70;64.72
73103;BME280;61294;65.988;29.172;2023-04-22T10:16:20;97769.94;;;0.90;65.14
73103;BME280;61294;65.988;29.172;2023-04-22T10:18:48;97760.06;;;1.16;65.41
73103;BME280;61294;65.988;29.172;2023-04-22T10:21:16;97772.06;;;1.11;63.50
73103;BME280;61294;65.988;29.172;2023-04-22T10:23:47;97755.94;;;0.80;61.98
73103;BME280;61294;65.988;29.172;2023-04-22T10:29:19;97768.53;;;-0.18;65.54
73103;BME280;61294;65.988;29.172;2023-04-22T10:34:35;97760.78;;;0.63;65.12
73103;BME280;61294;65.988;29.172;2023-04-22T10:37:09;97763.09;;;0.49;62.10
73103;BME280;61294;65.988;29.172;2023-04-22T10:39:36;97793.25;;;0.88;62.18
73103;BME280;61294;65.988;29.172;2023-04-22T10:42:04;97785.44;;;0.86;62.79
73103;BME280;61294;65.988;29.172;2023-04-22T10:44:50;97794.56;;;1.12;62.53
73103;BME280;61294;65.988;29.172;2023-04-22T10:47:36;97795.84;;;1.84;60.00
73103;BME280;61294;65.988;29.172;2023-04-22T10:50:21;97789.16;;;2.00;57.98
73103;BME280;61294;65.988;29.172;2023-04-22T10:52:53;97784.19;;;2.80;56.27
73103;BME280;61294;65.988;29.172;2023-04-22T10:55:19;97783.53;;;2.97;55.38
73103;BME280;61294;65.988;29.172;2023-04-22T10:57:47;97772.75;;;3.45;53.15
73103;BME280;61294;65.988;29.172;2023-04-22T11:00:22;97781.50;;;3.52;50.19
73103;BME280;61294;65.988;29.172;2023-04-22T11:05:30;97761.69;;;3.70;48.48
73103;BME280;61294;65.988;29.172;2023-04-22T11:08:02;97789.56;;;3.83;49.03
73103;BME280;61294;65.988;29.172;2023-04-22T11:10:40;97784.81;;;4.51;47.20
73103;BME280;61294;65.988;29.172;2023-04-22T11:13:12;97777.22;;;5.04;44.19
73103;BME280;61294;65.988;29.172;2023-04-22T11:15:41;97767.41;;;4.45;44.80
73103;BME280;61294;65.988;29.172;2023-04-22T11:18:09;97772.06;;;5.22;43.09
73103;BME280;61294;65.988;29.172;2023-04-22T11:20:36;97775.59;;;6.34;41.82
73103;BME280;61294;65.988;29.172;2023-04-22T11:23:02;97787.75;;;6.67;39.03
73103;BME280;61294;65.988;29.172;2023-04-22T11:25:29;97780.69;;;8.21;38.17
73103;BME280;61294;65.988;29.172;2023-04-22T11:27:57;97776.25;;;8.31;37.46
73103;BME280;61294;65.988;29.172;2023-04-22T11:30:25;97794.78;;;8.08;35.54
73103;BME280;61294;65.988;29.172;2023-04-22T11:32:57;97795.41;;;7.15;37.17
73103;BME280;61294;65.988;29.172;2023-04-22T11:35:30;97784.31;;;6.30;38.91
73103;BME280;61294;65.988;29.172;2023-04-22T11:38:01;97788.44;;;9.16;36.98
73103;BME280;61294;65.988;29.172;2023-04-22T11:40:31;97799.47;;;7.67;33.59
73103;BME280;61294;65.988;29.172;2023-04-22T11:42:59;97794.72;;;6.62;36.05
73103;BME280;61294;65.988;29.172;2023-04-22T11:45:27;97805.81;;;8.52;35.03
73103;BME280;61294;65.988;29.172;2023-04-22T11:47:54;97800.72;;;9.15;32.93
73103;BME280;61294;65.988;29.172;2023-04-22T11:50:29;97798.03;;;9.20;33.14
73103;BME280;61294;65.988;29.172;2023-04-22T11:52:59;97778.00;;;9.11;32.87
73103;BME280;61294;65.988;29.172;2023-04-22T11:55:31;97773.16;;;11.00;32.08
73103;BME280;61294;65.988;29.172;2023-04-22T11:58:07;97812.28;;;10.75;28.66
73103;BME280;61294;65.988;29.172;2023-04-22T12:00:41;97800.38;;;10.54;30.59
73103;BME280;61294;65.988;29.172;2023-04-22T12:05:46;97812.38;;;11.14;31.75
73103;BME280;61294;65.988;29.172;2023-04-22T12:08:17;97809.84;;;11.91;29.42
73103;BME280;61294;65.988;29.172;2023-04-22T12:10:52;97795.78;;;10.14;29.71
73103;BME280;61294;65.988;29.172;2023-04-22T12:13:22;97802.41;;;14.27;27.22
73103;BME280;61294;65.988;29.172;2023-04-22T12:15:59;97823.72;;;13.95;26.18
73103;BME280;61294;65.988;29.172;2023-04-22T12:18:37;97826.19;;;10.32;29.63
73103;BME280;61294;65.988;29.172;2023-04-22T12:23:29;97823.63;;;10.79;29.25
73103;BME280;61294;65.988;29.172;2023-04-22T12:25:56;97825.44;;;12.72;28.51
73103;BME280;61294;65.988;29.172;2023-04-22T12:28:22;97798.78;;;12.82;25.61
73103;BME280;61294;65.988;29.172;2023-04-22T12:30:47;97820.06;;;11.27;27.22
73103;BME280;61294;65.988;29.172;2023-04-22T12:33:13;97814.09;;;11.98;26.87
73103;BME280;61294;65.988;29.172;2023-04-22T12:35:39;97818.94;;;10.48;28.71
73103;BME280;61294;65.988;29.172;2023-04-22T12:38:05;97835.03;;;13.09;26.22
73103;BME280;61294;65.988;29.172;2023-04-22T12:40:31;97815.03;;;13.62;25.50
73103;BME280;61294;65.988;29.172;2023-04-22T12:42:57;97831.44;;;13.43;24.76
73103;BME280;61294;65.988;29.172;2023-04-22T12:45:22;97836.06;;;12.71;25.29
73103;BME280;61294;65.988;29.172;2023-04-22T12:47:50;97833.13;;;10.87;27.16
73103;BME280;61294;65.988;29.172;2023-04-22T12:50:18;97834.22;;;8.96;29.87
73103;BME280;61294;65.988;29.172;2023-04-22T12:52:44;97856.78;;;9.81;29.87
73103;BME280;61294;65.988;29.172;2023-04-22T12:55:10;97838.63;;;12.03;27.48
73103;BME280;61294;65.988;29.172;2023-04-22T12:57:36;97864.16;;;12.75;26.11
73103;BME280;61294;65.988;29.172;2023-04-22T13:00:03;97859.50;;;14.89;24.15
73103;BME280;61294;65.988;29.172;2023-04-22T13:02:31;97866.13;;;13.00;23.55
73103;BME280;61294;65.988;29.172;2023-04-22T13:04:57;97850.31;;;10.59;24.46
73103;BME280;61294;65.988;29.172;2023-04-22T13:07:23;97884.31;;;7.51;27.81
73103;BME280;61294;65.988;29.172;2023-04-22T13:09:48;97886.03;;;7.61;28.46
73103;BME280;61294;65.988;29.172;2023-04-22T13:12:14;97887.47;;;9.11;28.34
73103;BME280;61294;65.988;29.172;2023-04-22T13:14:41;97866.72;;;11.21;26.52
73103;BME280;61294;65.988;29.172;2023-04-22T13:17:07;97864.09;;;12.76;23.19
73103;BME280;61294;65.988;29.172;2023-04-22T13:19:32;97853.19;;;14.40;23.49
73103;BME280;61294;65.988;29.172;2023-04-22T13:21:59;97863.47;;;14.22;21.90